createdAt,value
2023-05-12T00:02:14.982Z,12.57
2023-05-12T00:04:42.411Z,12.42
2023-05-12T00:07:10.020Z,12.49
2023-05-12T00:09:37.250Z,12.33
2023-05-12T00:12:05.127Z,12.39
2023-05-12T00:14:32.291Z,12.36
2023-05-12T00:16:59.829Z,12.29
2023-05-12T00:19:27.391Z,12.22
2023-05-12T00:21:54.924Z,12.25
2023-05-12T00:24:22.247Z,12.30
2023-05-12T00:26:49.735Z,12.26
2023-05-12T00:29:16.946Z,12.12
2023-05-12T00:31:44.490Z,12.20
2023-05-12T00:34:11.802Z,12.11
2023-05-12T00:36:39.915Z,12.15
2023-05-12T00:39:07.278Z,12.06
2023-05-12T00:41:34.775Z,11.88
2023-05-12T00:44:02.055Z,11.75
2023-05-12T00:46:30.303Z,11.70
2023-05-12T00:48:58.506Z,11.68
2023-05-12T00:51:26.656Z,11.69
2023-05-12T00:53:55.541Z,11.74
2023-05-12T00:56:23.653Z,12.03
2023-05-12T00:58:51.389Z,12.10
2023-05-12T01:01:19.364Z,11.92
2023-05-12T01:03:49.857Z,11.89
2023-05-12T01:06:37.144Z,11.61
2023-05-12T01:09:05.921Z,11.60
2023-05-12T01:11:33.453Z,11.68
2023-05-12T01:14:00.789Z,11.75
2023-05-12T01:16:36.815Z,11.76
2023-05-12T01:19:10.847Z,11.76
2023-05-12T01:21:39.031Z,11.64
2023-05-12T01:24:08.848Z,11.59
2023-05-12T01:26:37.906Z,11.57
2023-05-12T01:29:06.785Z,11.77
2023-05-12T01:31:34.589Z,11.53
2023-05-12T01:34:02.001Z,11.57
2023-05-12T01:36:31.613Z,11.81
2023-05-12T01:38:59.252Z,11.64
2023-05-12T01:41:26.752Z,11.60
2023-05-12T01:43:54.181Z,11.46
2023-05-12T01:46:21.872Z,11.55
2023-05-12T01:48:49.867Z,11.60
2023-05-12T01:51:17.542Z,11.63
2023-05-12T01:53:45.271Z,11.52
2023-05-12T01:56:13.091Z,11.55
2023-05-12T01:58:40.482Z,11.48
2023-05-12T02:01:08.047Z,11.36
2023-05-12T02:03:35.302Z,11.45
2023-05-12T02:06:02.986Z,11.34
2023-05-12T02:08:30.357Z,11.19
2023-05-12T02:11:08.368Z,11.33
2023-05-12T02:13:35.876Z,11.26
2023-05-12T02:16:04.225Z,11.20
2023-05-12T02:18:31.596Z,11.06
2023-05-12T02:20:59.464Z,11.24
2023-05-12T02:23:26.607Z,11.11
2023-05-12T02:25:54.133Z,11.18
2023-05-12T02:28:21.308Z,11.29
2023-05-12T02:30:50.847Z,11.23
2023-05-12T02:33:19.695Z,11.10
2023-05-12T02:35:48.066Z,11.25
2023-05-12T02:38:15.835Z,11.13
2023-05-12T02:40:43.453Z,10.93
2023-05-12T02:43:11.215Z,11.00
2023-05-12T02:45:39.116Z,11.21
2023-05-12T02:48:06.717Z,11.20
2023-05-12T02:50:34.230Z,11.28
2023-05-12T02:53:01.453Z,11.36
2023-05-12T02:55:30.305Z,11.33
2023-05-12T02:57:57.720Z,11.23
2023-05-12T03:00:25.490Z,11.16
2023-05-12T03:02:53.009Z,11.22
2023-05-12T03:05:20.918Z,11.19
2023-05-12T03:07:49.559Z,11.32
2023-05-12T03:10:18.933Z,11.64
2023-05-12T03:12:47.133Z,11.59
2023-05-12T03:15:14.664Z,11.66
2023-05-12T03:17:42.555Z,11.60
2023-05-12T03:20:10.422Z,11.66
2023-05-12T03:22:37.950Z,11.64
2023-05-12T03:25:06.391Z,12.11
2023-05-12T03:27:33.703Z,12.12
2023-05-12T03:30:01.290Z,12.24
2023-05-12T03:32:29.792Z,12.57
2023-05-12T03:34:57.394Z,12.34
2023-05-12T03:37:24.852Z,13.18
2023-05-12T03:39:56.090Z,14.40
2023-05-12T03:42:24.188Z,15.80
2023-05-12T03:44:52.160Z,16.45
2023-05-12T03:47:19.467Z,16.81
2023-05-12T03:49:47.078Z,16.11
2023-05-12T03:52:14.393Z,15.74
2023-05-12T03:54:41.864Z,16.70
2023-05-12T03:57:09.052Z,16.66
2023-05-12T03:59:36.513Z,15.98
2023-05-12T04:02:04.342Z,17.44
2023-05-12T04:04:32.007Z,17.68
2023-05-12T04:07:00.298Z,17.21
2023-05-12T04:09:28.041Z,18.63
2023-05-12T04:11:55.325Z,18.80
2023-05-12T04:14:31.892Z,19.53
2023-05-12T04:17:02.990Z,20.64
2023-05-12T04:19:30.523Z,20.61
2023-05-12T04:21:57.973Z,18.26
2023-05-12T04:24:25.681Z,18.41
2023-05-12T04:26:52.894Z,18.81
2023-05-12T04:29:20.623Z,19.09
2023-05-12T04:31:48.078Z,16.83
2023-05-12T04:34:15.653Z,16.28
2023-05-12T04:36:42.906Z,14.55
2023-05-12T04:39:10.445Z,14.82
2023-05-12T04:41:37.650Z,15.26
2023-05-12T04:44:05.494Z,16.57
2023-05-12T04:46:33.686Z,17.22
2023-05-12T04:49:01.944Z,16.48
2023-05-12T04:51:29.160Z,15.84
2023-05-12T04:53:56.681Z,15.93
2023-05-12T04:56:23.909Z,15.09
2023-05-12T04:58:51.834Z,16.08
2023-05-12T05:01:19.294Z,17.98
2023-05-12T05:03:48.020Z,18.16
2023-05-12T05:06:15.383Z,19.05
2023-05-12T05:08:42.962Z,20.59
2023-05-12T05:11:10.177Z,19.41
2023-05-12T05:13:38.060Z,17.52
2023-05-12T05:16:06.860Z,20.05
2023-05-12T05:18:34.697Z,22.13
2023-05-12T05:21:02.131Z,27.34
2023-05-12T05:23:29.754Z,28.41
2023-05-12T05:25:56.973Z,27.01
2023-05-12T05:28:24.688Z,28.48
2023-05-12T05:30:51.911Z,30.23
2023-05-12T05:33:19.669Z,29.99
2023-05-12T05:35:48.094Z,20.80
2023-05-12T05:38:15.835Z,24.85
2023-05-12T05:40:52.925Z,20.79
2023-05-12T05:43:21.831Z,25.46
2023-05-12T05:45:50.099Z,28.08
2023-05-12T05:48:18.661Z,26.76
2023-05-12T05:50:47.186Z,24.17
2023-05-12T05:53:15.532Z,26.46
2023-05-12T05:55:43.568Z,24.17
2023-05-12T05:58:11.196Z,27.79
2023-05-12T06:00:38.899Z,29.91
2023-05-12T06:03:06.510Z,26.75
2023-05-12T06:05:34.401Z,29.98
2023-05-12T06:08:01.908Z,28.45
2023-05-12T06:10:29.112Z,27.86
2023-05-12T06:12:56.670Z,31.46
2023-05-12T06:15:23.907Z,28.31
2023-05-12T06:17:51.430Z,32.00
2023-05-12T06:20:18.719Z,31.59
2023-05-12T06:22:46.400Z,30.32
2023-05-12T06:25:13.635Z,32.89
2023-05-12T06:27:41.276Z,29.31
2023-05-12T06:30:09.676Z,28.94
2023-05-12T06:32:37.217Z,27.68
2023-05-12T06:35:06.811Z,28.87
2023-05-12T06:37:34.313Z,31.10
2023-05-12T06:40:01.601Z,34.67
2023-05-12T06:42:29.125Z,29.90
2023-05-12T06:44:56.842Z,33.37
2023-05-12T06:47:24.458Z,23.18
2023-05-12T06:49:51.824Z,28.89
2023-05-12T06:52:20.649Z,32.56
2023-05-12T06:54:47.924Z,34.42
2023-05-12T06:57:15.490Z,35.80
2023-05-12T06:59:42.659Z,31.78
2023-05-12T07:02:10.120Z,30.84
2023-05-12T07:04:37.450Z,26.30
2023-05-12T07:07:05.080Z,23.45
2023-05-12T07:09:32.271Z,29.65
2023-05-12T07:12:00.859Z,32.48
2023-05-12T07:14:28.066Z,31.26
2023-05-12T07:16:55.655Z,26.28
2023-05-12T07:19:22.999Z,29.35
2023-05-12T07:21:50.501Z,28.41
2023-05-12T07:24:17.723Z,29.84
2023-05-12T07:26:45.171Z,28.71
2023-05-12T07:29:13.843Z,26.43
2023-05-12T07:31:41.728Z,28.56
2023-05-12T07:34:08.998Z,29.68
2023-05-12T07:36:36.520Z,32.72
2023-05-12T07:39:03.765Z,23.70
2023-05-12T07:41:32.545Z,27.07
2023-05-12T07:44:02.382Z,27.23
2023-05-12T07:46:30.076Z,28.21
2023-05-12T07:48:57.472Z,25.98
2023-05-12T07:51:25.057Z,27.58
2023-05-12T07:53:52.317Z,27.88
2023-05-12T07:56:19.832Z,27.61
2023-05-12T07:58:47.607Z,27.05
2023-05-12T08:01:15.341Z,26.39
2023-05-12T08:03:42.745Z,27.62
2023-05-12T08:06:10.734Z,29.18
2023-05-12T08:08:38.146Z,30.41
2023-05-12T08:11:05.871Z,27.77
2023-05-12T08:13:33.223Z,27.64
2023-05-12T08:16:00.833Z,28.18
2023-05-12T08:18:28.051Z,28.43
2023-05-12T08:20:55.792Z,30.37
2023-05-12T08:23:23.275Z,28.86
2023-05-12T08:25:50.815Z,23.80
2023-05-12T08:28:18.032Z,23.37
2023-05-12T08:30:45.775Z,25.44
2023-05-12T08:33:13.370Z,25.26
2023-05-12T08:35:41.068Z,25.75
2023-05-12T08:38:08.396Z,25.87
2023-05-12T08:40:46.700Z,26.00
2023-05-12T08:43:25.069Z,29.10
2023-05-12T08:46:00.365Z,24.50
2023-05-12T08:48:29.419Z,26.44
2023-05-12T08:50:58.065Z,29.14
2023-05-12T08:53:27.151Z,29.33
2023-05-12T08:57:10.003Z,28.96
2023-05-12T08:58:45.724Z,27.67
2023-05-12T09:01:15.182Z,28.39
2023-05-12T09:03:42.654Z,27.11
2023-05-12T09:06:11.729Z,27.01
2023-05-12T09:08:39.556Z,28.13
2023-05-12T09:11:09.763Z,29.14
2023-05-12T09:14:03.244Z,26.41
2023-05-12T09:16:35.931Z,25.82
2023-05-12T09:19:06.071Z,24.42
2023-05-12T09:21:34.666Z,23.70
2023-05-12T09:24:07.153Z,23.53
2023-05-12T09:26:47.433Z,26.37
2023-05-12T09:29:24.115Z,26.55
2023-05-12T09:31:59.781Z,24.32
2023-05-12T09:34:41.345Z,24.22
2023-05-12T09:37:09.657Z,22.44
2023-05-12T09:39:37.046Z,23.16
2023-05-12T09:42:10.963Z,24.44
2023-05-12T09:44:39.277Z,24.23
2023-05-12T09:47:08.040Z,25.97
2023-05-12T09:49:35.819Z,22.79
2023-05-12T09:52:05.026Z,23.59
2023-05-12T09:54:33.867Z,26.59
2023-05-12T09:57:04.036Z,24.64
2023-05-12T09:59:33.496Z,22.01
2023-05-12T10:02:05.558Z,23.22
2023-05-12T10:04:41.794Z,22.01
2023-05-12T10:07:12.933Z,23.02
2023-05-12T10:09:42.522Z,22.17
2023-05-12T10:12:10.770Z,20.99
2023-05-12T10:14:38.685Z,21.73
2023-05-12T10:17:07.384Z,21.84
2023-05-12T10:19:36.083Z,22.10
2023-05-12T10:22:05.863Z,23.15
2023-05-12T10:24:33.652Z,23.53
2023-05-12T10:27:03.853Z,23.57
2023-05-12T10:29:33.135Z,21.54
2023-05-12T10:32:04.143Z,21.59
2023-05-12T10:34:35.239Z,21.01
2023-05-12T10:37:08.381Z,21.58
2023-05-12T10:39:35.809Z,22.24
2023-05-12T10:42:08.580Z,23.74
2023-05-12T10:44:37.074Z,23.24
2023-05-12T10:47:16.716Z,23.52
2023-05-12T10:49:43.966Z,21.99
2023-05-12T10:52:13.497Z,21.72
2023-05-12T10:54:44.594Z,21.64
2023-05-12T10:57:20.616Z,21.12
2023-05-12T10:59:56.298Z,21.87
2023-05-12T11:02:29.246Z,22.24
2023-05-12T11:05:02.343Z,23.14
2023-05-12T11:07:33.087Z,20.44
2023-05-12T11:10:03.693Z,20.49
2023-05-12T11:12:35.401Z,20.37
2023-05-12T11:15:04.603Z,20.29
2023-05-12T11:17:33.743Z,20.14
2023-05-12T11:20:01.618Z,20.33
2023-05-12T11:22:29.795Z,19.97
2023-05-12T11:24:57.153Z,19.85
2023-05-12T11:27:24.764Z,20.16
2023-05-12T11:30:00.544Z,19.48
2023-05-12T11:32:29.622Z,19.88
2023-05-12T11:35:10.960Z,19.79
2023-05-12T11:37:40.377Z,19.95
2023-05-12T11:40:19.080Z,19.91
2023-05-12T11:42:51.552Z,19.89
2023-05-12T11:45:23.791Z,20.06
2023-05-12T11:47:52.166Z,20.43
2023-05-12T11:50:24.097Z,20.06
2023-05-12T11:52:52.992Z,20.06
2023-05-12T11:55:24.790Z,20.22
2023-05-12T11:58:00.530Z,20.12
2023-05-12T12:00:33.427Z,19.78
2023-05-12T12:03:11.669Z,20.16
2023-05-12T12:05:43.635Z,19.97
2023-05-12T12:08:16.255Z,19.92
2023-05-12T12:10:46.899Z,20.13
2023-05-12T12:13:22.964Z,20.15
2023-05-12T12:15:51.114Z,20.13
2023-05-12T12:18:22.068Z,20.46
2023-05-12T12:20:49.407Z,20.23
2023-05-12T12:23:16.884Z,20.29
2023-05-12T12:25:44.170Z,20.02
2023-05-12T12:28:12.331Z,20.09
2023-05-12T12:30:39.574Z,19.69
2023-05-12T12:33:07.211Z,19.58
2023-05-12T12:35:34.456Z,19.93
2023-05-12T12:38:01.926Z,19.85
2023-05-12T12:40:29.108Z,19.92
2023-05-12T12:42:57.760Z,20.08
2023-05-12T12:45:25.365Z,19.80
2023-05-12T12:47:54.869Z,19.89
2023-05-12T12:50:23.544Z,19.93
2023-05-12T12:52:52.354Z,19.71
2023-05-12T12:55:20.039Z,19.71
2023-05-12T12:57:47.846Z,20.10
2023-05-12T13:00:15.508Z,19.75
2023-05-12T13:02:43.074Z,19.66
2023-05-12T13:05:10.909Z,20.19
2023-05-12T13:07:38.383Z,20.37
2023-05-12T13:10:05.974Z,20.34
2023-05-12T13:12:33.654Z,20.28
2023-05-12T13:15:01.022Z,20.21
2023-05-12T13:17:29.176Z,20.42
2023-05-12T13:19:56.470Z,20.27
2023-05-12T13:22:25.862Z,20.49
2023-05-12T13:24:53.445Z,20.17
2023-05-12T13:27:21.057Z,20.37
2023-05-12T13:29:48.329Z,20.29
2023-05-12T13:32:16.367Z,19.98
2023-05-12T13:34:43.624Z,20.44
2023-05-12T13:37:11.259Z,20.31
2023-05-12T13:39:38.471Z,19.93
2023-05-12T13:42:06.418Z,20.17
2023-05-12T13:44:33.628Z,20.09
2023-05-12T13:47:01.144Z,20.17
2023-05-12T13:49:28.319Z,20.41
2023-05-12T13:51:55.874Z,19.71
2023-05-12T13:54:24.078Z,20.44
2023-05-12T13:56:51.878Z,20.60
2023-05-12T13:59:19.573Z,20.00
2023-05-12T14:01:47.282Z,20.41
2023-05-12T14:04:14.554Z,20.30
2023-05-12T14:06:42.073Z,20.36
2023-05-12T14:09:09.349Z,20.27
2023-05-12T14:11:37.084Z,20.40
2023-05-12T14:14:06.330Z,20.22
2023-05-12T14:16:34.039Z,20.10
2023-05-12T14:19:01.581Z,19.87
2023-05-12T14:21:29.182Z,19.89
2023-05-12T14:23:56.415Z,19.75
2023-05-12T14:26:25.650Z,19.56
2023-05-12T14:28:53.091Z,19.31
2023-05-12T14:31:20.692Z,19.43
2023-05-12T14:33:47.972Z,19.41
2023-05-12T14:36:15.476Z,19.32
2023-05-12T14:38:42.786Z,19.40
2023-05-12T14:41:11.133Z,19.44
2023-05-12T14:43:38.464Z,19.25
2023-05-12T14:46:06.628Z,19.21
2023-05-12T14:48:33.863Z,19.13
2023-05-12T14:51:03.315Z,18.72
2023-05-12T14:53:31.225Z,18.67
2023-05-12T14:55:58.752Z,18.65
2023-05-12T14:58:26.042Z,18.64
2023-05-12T15:00:53.923Z,18.61
2023-05-12T15:03:21.437Z,18.63
2023-05-12T15:06:04.879Z,18.73
2023-05-12T15:08:33.953Z,18.94
2023-05-12T15:11:01.471Z,19.03
2023-05-12T15:13:28.743Z,18.72
2023-05-12T15:15:57.086Z,18.56
2023-05-12T15:18:24.585Z,18.79
2023-05-12T15:20:52.224Z,18.87
2023-05-12T15:23:19.367Z,18.88
2023-05-12T15:25:46.869Z,18.63
2023-05-12T15:28:14.153Z,18.73
2023-05-12T15:30:41.718Z,18.19
2023-05-12T15:33:09.033Z,18.15
2023-05-12T15:35:36.700Z,18.11
2023-05-12T15:38:04.342Z,18.28
2023-05-12T15:40:31.871Z,18.55
2023-05-12T15:42:59.156Z,18.53
2023-05-12T15:45:26.699Z,18.24
2023-05-12T15:47:54.155Z,18.04
2023-05-12T15:50:23.073Z,18.19
2023-05-12T15:52:50.894Z,18.51
2023-05-12T15:55:18.743Z,18.13
2023-05-12T15:57:46.304Z,18.51
2023-05-12T16:00:14.732Z,18.31
2023-05-12T16:02:42.013Z,18.43
2023-05-12T16:05:09.991Z,18.50
2023-05-12T16:07:37.189Z,17.99
2023-05-12T16:10:05.807Z,18.05
2023-05-12T16:12:33.056Z,18.23
2023-05-12T16:15:00.623Z,18.15
2023-05-12T16:17:28.453Z,18.08
2023-05-12T16:19:57.084Z,18.29
2023-05-12T16:22:24.323Z,18.51
2023-05-12T16:24:53.797Z,18.47
2023-05-12T16:27:21.016Z,18.39
2023-05-12T16:29:49.684Z,18.40
2023-05-12T16:32:17.524Z,18.50
2023-05-12T16:34:45.294Z,17.98
2023-05-12T16:37:12.557Z,17.81
2023-05-12T16:39:40.195Z,17.80
2023-05-12T16:42:07.577Z,18.09
2023-05-12T16:44:35.066Z,18.00
2023-05-12T16:47:02.293Z,18.06
2023-05-12T16:49:30.124Z,18.05
2023-05-12T16:51:57.333Z,18.13
2023-05-12T16:54:24.913Z,18.01
2023-05-12T16:56:52.257Z,18.14
2023-05-12T16:59:21.167Z,17.88
2023-05-12T17:01:48.450Z,17.89
2023-05-12T17:04:16.335Z,17.86
2023-05-12T17:06:43.663Z,17.94
2023-05-12T17:09:11.212Z,17.90
2023-05-12T17:11:38.414Z,17.81
2023-05-12T17:14:05.962Z,17.82
2023-05-12T17:16:33.400Z,17.84
2023-05-12T17:21:31.492Z,17.77
2023-05-12T17:23:58.979Z,17.67
2023-05-12T17:26:27.956Z,17.73
2023-05-12T17:28:56.085Z,17.58
2023-05-12T17:31:23.640Z,17.57
2023-05-12T17:33:51.444Z,17.56
2023-05-12T17:36:18.956Z,17.50
2023-05-12T17:38:46.536Z,17.48
2023-05-12T17:41:13.788Z,17.43
2023-05-12T17:43:41.566Z,17.41
2023-05-12T17:46:09.256Z,17.30
2023-05-12T17:48:38.575Z,17.28
2023-05-12T17:51:06.220Z,17.28
2023-05-12T17:53:34.233Z,17.22
2023-05-12T17:56:01.769Z,17.05
2023-05-12T17:58:29.522Z,17.01
2023-05-12T18:00:56.870Z,17.04
2023-05-12T18:03:24.759Z,16.91
2023-05-12T18:05:54.183Z,16.87
2023-05-12T18:08:21.879Z,16.73
2023-05-12T18:10:49.159Z,16.67
2023-05-12T18:13:17.033Z,16.74
2023-05-12T18:15:44.570Z,16.65
2023-05-12T18:18:12.473Z,16.54
2023-05-12T18:20:39.794Z,16.46
2023-05-12T18:23:07.289Z,16.42
2023-05-12T18:25:34.500Z,16.38
2023-05-12T18:28:03.371Z,16.33
2023-05-12T18:30:31.273Z,16.11
2023-05-12T18:32:58.992Z,16.01
2023-05-12T18:35:27.195Z,16.02
2023-05-12T18:37:54.990Z,15.89
2023-05-12T18:40:22.272Z,15.69
2023-05-12T18:42:51.159Z,15.80
2023-05-12T18:45:19.657Z,15.68
2023-05-12T18:47:47.310Z,15.62
2023-05-12T18:50:14.625Z,15.62
2023-05-12T18:52:42.933Z,15.47
2023-05-12T18:55:10.959Z,15.39
2023-05-12T18:57:38.496Z,15.31
2023-05-12T19:00:06.652Z,15.28
2023-05-12T19:02:34.728Z,15.25
2023-05-12T19:05:02.579Z,15.13
2023-05-12T19:07:30.437Z,14.93
2023-05-12T19:09:58.783Z,14.91
2023-05-12T19:12:26.914Z,14.91
2023-05-12T19:14:54.325Z,14.84
2023-05-12T19:17:22.264Z,14.86
2023-05-12T19:19:50.725Z,14.88
2023-05-12T19:22:18.232Z,14.83
2023-05-12T19:24:45.911Z,14.72
2023-05-12T19:27:13.454Z,14.64
2023-05-12T19:29:40.721Z,14.56
2023-05-12T19:32:08.943Z,14.40
2023-05-12T19:34:36.720Z,14.29
2023-05-12T19:37:05.629Z,14.26
2023-05-12T19:39:33.202Z,14.09
2023-05-12T19:42:00.862Z,14.04
2023-05-12T19:44:29.939Z,14.02
2023-05-12T19:47:04.508Z,14.10
2023-05-12T19:49:35.986Z,14.07
2023-05-12T19:52:05.591Z,14.09
2023-05-12T19:54:33.099Z,14.08
2023-05-12T19:57:00.668Z,14.07
2023-05-12T19:59:28.112Z,14.13
2023-05-12T20:01:56.011Z,14.18
2023-05-12T20:04:23.935Z,14.17
2023-05-12T20:06:51.578Z,14.03
2023-05-12T20:09:20.802Z,14.10
2023-05-12T20:11:49.082Z,13.96
2023-05-12T20:14:16.484Z,14.32
2023-05-12T20:16:44.688Z,14.26
2023-05-12T20:19:12.163Z,14.13
2023-05-12T20:21:41.619Z,14.03
2023-05-12T20:24:09.571Z,14.08
2023-05-12T20:26:38.021Z,14.02
2023-05-12T20:29:05.379Z,13.93
2023-05-12T20:31:32.984Z,13.89
2023-05-12T20:34:00.295Z,13.84
2023-05-12T20:36:27.931Z,13.79
2023-05-12T20:38:55.206Z,13.83
2023-05-12T20:41:22.898Z,13.80
2023-05-12T20:43:50.095Z,13.74
2023-05-12T20:46:17.793Z,13.84
2023-05-12T20:48:45.146Z,13.83
2023-05-12T20:51:13.424Z,13.70
2023-05-12T20:53:40.741Z,13.70
2023-05-12T20:56:08.701Z,13.80
2023-05-12T20:58:36.652Z,13.66
2023-05-12T21:01:04.433Z,13.73
2023-05-12T21:03:33.851Z,13.70
2023-05-12T21:06:01.735Z,13.54
2023-05-12T21:08:28.953Z,13.51
2023-05-12T21:10:56.623Z,13.51
2023-05-12T21:13:23.894Z,13.46
2023-05-12T21:15:51.599Z,13.41
2023-05-12T21:18:18.772Z,13.43
2023-05-12T21:20:46.391Z,13.39
2023-05-12T21:23:13.846Z,13.40
2023-05-12T21:25:41.419Z,13.36
2023-05-12T21:28:08.644Z,13.37
2023-05-12T21:30:37.394Z,13.44
2023-05-12T21:33:05.600Z,13.43
2023-05-12T21:35:33.304Z,13.46
2023-05-12T21:38:00.762Z,13.45
2023-05-12T21:40:29.224Z,13.32
2023-05-12T21:42:56.447Z,13.37
2023-05-12T21:45:24.047Z,13.32
2023-05-12T21:47:51.472Z,13.37
2023-05-12T21:50:21.629Z,13.37
2023-05-12T21:52:49.829Z,13.30
2023-05-12T21:55:17.429Z,13.31
2023-05-12T21:57:44.650Z,13.45
2023-05-12T22:00:14.890Z,13.48
2023-05-12T22:02:42.266Z,13.39
2023-05-12T22:05:10.214Z,13.31
2023-05-12T22:07:37.412Z,13.25
2023-05-12T22:10:05.949Z,13.24
2023-05-12T22:12:33.262Z,13.19
2023-05-12T22:15:00.820Z,13.21
2023-05-12T22:17:28.133Z,13.12
2023-05-12T22:19:55.807Z,13.08
2023-05-12T22:22:23.228Z,13.23
2023-05-12T22:24:51.936Z,13.10
2023-05-12T22:27:22.214Z,13.22
2023-05-12T22:29:49.828Z,13.35
2023-05-12T22:32:17.052Z,13.33
2023-05-12T22:34:44.602Z,13.26
2023-05-12T22:37:11.811Z,13.33
2023-05-12T22:39:39.386Z,13.24
2023-05-12T22:42:06.882Z,13.20
2023-05-12T22:44:34.452Z,13.11
2023-05-12T22:47:01.805Z,13.06
2023-05-12T22:49:29.297Z,12.88
2023-05-12T22:51:56.615Z,12.88
2023-05-12T22:54:24.134Z,12.84
2023-05-12T22:56:51.344Z,12.74
2023-05-12T22:59:18.814Z,12.69
2023-05-12T23:01:46.378Z,12.75
2023-05-12T23:04:13.953Z,12.64
2023-05-12T23:06:41.395Z,12.70
2023-05-12T23:09:09.662Z,12.68
2023-05-12T23:11:37.010Z,12.60
2023-05-12T23:14:04.595Z,12.61
2023-05-12T23:16:31.978Z,12.55
2023-05-12T23:18:59.588Z,12.54
2023-05-12T23:21:26.793Z,12.78
2023-05-12T23:23:54.224Z,12.87
2023-05-12T23:26:21.448Z,12.72
2023-05-12T23:28:48.957Z,12.80
2023-05-12T23:31:16.296Z,12.78
2023-05-12T23:33:43.936Z,12.72
2023-05-12T23:36:11.326Z,12.63
2023-05-12T23:38:38.958Z,12.50
2023-05-12T23:41:06.247Z,12.42
2023-05-12T23:43:33.800Z,12.52
2023-05-12T23:46:01.507Z,12.54
2023-05-12T23:48:29.933Z,12.57
2023-05-12T23:50:57.298Z,12.64
2023-05-12T23:53:24.796Z,12.63
2023-05-12T23:55:51.981Z,12.82
2023-05-12T23:58:19.437Z,12.80
